Time;durP1;ratioP1;P1;durP2;ratioP2;P2;SDS_P1;SDS_P2;PMS_P1;PMS_P2;Temp;Humidity;BMP_temperature;BMP_pressure;BME280_temperature;BME280_humidity;BME280_pressure;Samples;Min_cycle;Max_cycle;Signal;HPM_P1;HPM_P2
2022/12/22 03:27:17;;;;;;;20.77;14.38;;;;;;;5.07;86.37;100210.10;1702496;82;21100;-75
2022/12/22 03:30:03;;;;;;;21.50;14.33;;;;;;;5.05;86.37;100208.82;1678714;83;21069;-75
2022/12/22 03:32:48;;;;;;;18.77;13.68;;;;;;;5.06;86.39;100204.55;1698468;82;21044;-75
2022/12/22 03:35:33;;;;;;;22.67;14.53;;;;;;;5.05;86.41;100202.41;1698080;83;21076;-75
2022/12/22 03:38:18;;;;;;;19.95;13.78;;;;;;;5.06;86.40;100200.71;1678144;83;21359;-75
2022/12/22 03:41:04;;;;;;;22.27;14.70;;;;;;;5.06;86.40;100200.71;1702834;82;21577;-75
2022/12/22 03:46:52;;;;;;;22.55;14.47;;;;;;;5.06;86.37;100191.31;1696885;82;21120;-75
2022/12/22 03:49:37;;;;;;;24.10;14.87;;;;;;;5.06;86.38;100183.63;1698560;82;21065;-75
2022/12/22 03:52:23;;;;;;;20.05;14.33;;;;;;;5.04;86.35;100181.49;1673292;83;21077;-75
2022/12/22 03:55:08;;;;;;;21.17;14.30;;;;;;;5.01;86.31;100187.90;1701233;82;21038;-75
2022/12/22 03:57:52;;;;;;;21.23;13.85;;;;;;;4.98;86.31;100185.34;1698962;83;21105;-75
2022/12/22 04:00:37;;;;;;;22.65;14.75;;;;;;;4.96;86.33;100178.08;1700933;82;20997;-75
2022/12/22 04:03:23;;;;;;;24.25;14.23;;;;;;;4.94;86.33;100174.66;1686752;82;21112;-75
2022/12/22 04:06:08;;;;;;;22.85;14.33;;;;;;;4.92;86.32;100169.54;1704586;82;21045;-75
2022/12/22 04:08:53;;;;;;;21.00;14.35;;;;;;;4.91;86.33;100164.41;1697825;82;21448;-75
2022/12/22 04:14:42;;;;;;;24.85;13.80;;;;;;;4.86;86.32;100159.72;1696772;82;21155;-75
2022/12/22 04:17:27;;;;;;;18.98;13.48;;;;;;;4.80;86.25;100161.85;1695280;83;21599;-75
2022/12/22 04:20:12;;;;;;;23.32;13.53;;;;;;;4.74;86.21;100160.56;1675951;83;21045;-74
2022/12/22 04:22:58;;;;;;;21.68;14.10;;;;;;;4.69;86.22;100158.43;1698451;82;21049;-75
2022/12/22 04:25:42;;;;;;;22.40;13.80;;;;;;;4.63;86.21;100152.91;1700193;82;21105;-75
2022/12/22 04:28:27;;;;;;;22.32;13.72;;;;;;;4.60;86.24;100153.33;1697009;82;21061;-75
2022/12/22 04:31:13;;;;;;;21.15;13.70;;;;;;;4.57;86.21;100140.10;1697905;83;21628;-75
2022/12/22 04:33:58;;;;;;;20.20;13.03;;;;;;;4.51;86.17;100147.78;1697827;82;21029;-75
2022/12/22 04:36:43;;;;;;;20.67;13.50;;;;;;;4.47;86.20;100143.50;1698174;82;21631;-75
2022/12/22 04:39:28;;;;;;;19.77;13.10;;;;;;;4.43;86.17;100141.80;1699679;82;21112;-75
2022/12/22 04:42:13;;;;;;;20.00;13.50;;;;;;;4.39;86.19;100138.80;1701565;83;21410;-75
2022/12/22 04:44:58;;;;;;;19.55;13.40;;;;;;;4.36;86.20;100146.47;1697726;82;21591;-75
2022/12/22 04:47:43;;;;;;;19.20;13.45;;;;;;;4.33;86.19;100138.79;1697631;83;21851;-75
2022/12/22 04:50:28;;;;;;;20.02;12.85;;;;;;;4.28;86.14;100132.80;1695945;83;21085;-75
2022/12/22 04:53:14;;;;;;;19.65;13.10;;;;;;;4.23;86.17;100137.91;1695503;82;21145;-75
2022/12/22 04:56:03;;;;;;;21.23;13.98;;;;;;;4.19;86.11;100139.19;1693397;82;627438;-75
2022/12/22 04:58:48;;;;;;;22.58;14.58;;;;;;;4.14;86.12;100124.28;1724504;82;21081;-75
2022/12/22 05:01:33;;;;;;;21.42;13.53;;;;;;;4.12;86.17;100115.75;1720928;82;21614;-75
2022/12/22 05:04:18;;;;;;;19.92;13.45;;;;;;;4.09;86.20;100112.76;1720942;82;21053;-75
2022/12/22 05:07:06;;;;;;;19.40;13.48;;;;;;;4.08;86.21;100118.72;1706885;82;21052;-74
2022/12/22 05:09:51;;;;;;;19.60;13.45;;;;;;;4.06;86.21;100117.87;1724158;81;21640;-75
2022/12/22 05:12:54;;;;;;;19.85;13.35;;;;;;;4.04;86.20;100122.55;1703644;82;20980;-74
2022/12/22 05:15:39;;;;;;;20.25;13.35;;;;;;;4.01;86.19;100113.59;1702196;82;21135;-78
2022/12/22 05:18:24;;;;;;;23.70;13.83;;;;;;;3.98;86.21;100114.01;1698697;83;21001;-78
2022/12/22 05:21:16;;;;;;;17.17;12.60;;;;;;;3.98;86.24;100119.13;1714738;81;21096;-78
2022/12/22 05:24:01;;;;;;;20.72;13.22;;;;;;;3.99;86.25;100114.44;1703832;82;21092;-77
2022/12/22 05:26:47;;;;;;;21.87;13.98;;;;;;;3.98;86.23;100116.56;1687813;82;21120;-77
2022/12/22 05:29:31;;;;;;;19.60;13.80;;;;;;;3.98;86.25;100105.48;1704386;82;22466;-77
2022/12/22 05:32:16;;;;;;;22.75;14.25;;;;;;;4.00;86.26;100102.50;1700612;83;21017;-77
2022/12/22 05:35:03;;;;;;;20.27;13.83;;;;;;;4.01;86.26;100095.68;1706285;82;21088;-77
2022/12/22 05:37:48;;;;;;;20.62;13.78;;;;;;;4.01;86.29;100096.95;1707124;82;22040;-77
2022/12/22 05:40:33;;;;;;;23.98;14.03;;;;;;;4.04;86.28;100099.53;1702373;82;21580;-77
2022/12/22 05:43:19;;;;;;;20.52;13.48;;;;;;;4.05;86.28;100089.72;1687667;83;21163;-77
2022/12/22 05:46:09;;;;;;;21.95;13.98;;;;;;;4.07;86.30;100080.34;1705257;82;21398;-82
2022/12/22 05:48:54;;;;;;;21.82;13.00;;;;;;;4.09;86.33;100083.76;1700161;82;21072;-81
2022/12/22 05:51:39;;;;;;;21.70;13.68;;;;;;;4.11;86.31;100083.34;1695555;83;22414;-77
2022/12/22 05:54:24;;;;;;;21.65;13.38;;;;;;;4.13;86.30;100082.91;1696073;83;21119;-76
2022/12/22 05:57:10;;;;;;;18.48;13.35;;;;;;;4.14;86.35;100085.48;1696270;83;21476;-77
2022/12/22 05:59:55;;;;;;;18.48;12.70;;;;;;;4.16;86.33;100085.48;1698444;82;21081;-77
2022/12/22 06:02:42;;;;;;;18.17;13.35;;;;;;;4.18;86.32;100085.02;1684759;83;21129;-77
2022/12/22 06:05:26;;;;;;;;;;;;;;;4.19;86.34;100080.33;1701057;82;21601;-78
2022/12/22 06:08:11;;;;;;;20.30;13.13;;;;;;;4.21;86.36;100081.19;1698515;82;20189;-77
2022/12/22 06:10:57;;;;;;;17.50;12.90;;;;;;;4.20;86.33;100069.25;1686344;84;21069;-77
2022/12/22 06:13:44;;;;;;;16.90;12.45;;;;;;;4.21;86.33;100066.69;1687477;83;21463;-77
2022/12/22 06:16:29;;;;;;;16.27;12.82;;;;;;;4.22;86.33;100072.66;1681638;82;21057;-77
2022/12/22 06:19:14;;;;;;;20.25;13.30;;;;;;;4.23;86.35;100076.50;1686472;83;21077;-77
2022/12/22 06:22:00;;;;;;;19.95;13.80;;;;;;;4.26;86.36;100075.66;1697535;82;21056;-77
2022/12/22 06:24:45;;;;;;;21.17;13.77;;;;;;;4.26;86.33;100083.33;1693873;83;21136;-77
2022/12/22 06:27:30;;;;;;;20.10;13.98;;;;;;;4.25;86.34;100090.16;1684285;83;21054;-77
2022/12/22 06:30:16;;;;;;;17.32;12.93;;;;;;;4.26;86.36;100085.46;1684903;84;21511;-77
2022/12/22 06:33:02;;;;;;;18.25;13.30;;;;;;;4.28;86.38;100088.02;1682977;83;23480;-77
2022/12/22 06:35:47;;;;;;;18.80;13.48;;;;;;;4.30;86.42;100084.61;1701404;82;21065;-77
2022/12/22 06:38:32;;;;;;;21.40;13.28;;;;;;;4.31;86.40;100070.11;1686519;83;21058;-77
2022/12/22 06:43:07;;;;;;;16.65;12.73;;;;;;;4.33;86.41;100074.37;1675064;84;20977;-77
2022/12/22 06:44:04;;;;;;;21.90;14.03;;;;;;;4.36;86.43;100072.67;1696828;82;21104;-77
2022/12/22 06:46:49;;;;;;;18.77;13.80;;;;;;;4.38;86.44;100084.63;1690259;82;21526;-77
2022/12/22 06:49:34;;;;;;;18.77;13.60;;;;;;;4.39;86.42;100076.52;1679501;84;21046;-77
2022/12/22 06:52:19;;;;;;;19.27;13.45;;;;;;;4.41;86.47;100071.83;1698137;82;21043;-77
2022/12/22 06:55:05;;;;;;;20.72;13.98;;;;;;;4.43;86.45;100068.84;1687651;84;21117;-77
2022/12/22 06:57:51;;;;;;;21.65;13.93;;;;;;;4.45;86.46;100055.61;1679689;83;21100;-77
2022/12/22 07:00:36;;;;;;;18.75;13.53;;;;;;;4.46;86.48;100050.06;1677874;84;21065;-76
2022/12/22 07:03:21;;;;;;;21.12;13.75;;;;;;;4.49;86.48;100056.04;1690912;83;21085;-77
2022/12/22 07:06:07;;;;;;;20.88;14.07;;;;;;;4.49;86.47;100052.20;1689435;83;21112;-77
2022/12/22 07:08:51;;;;;;;22.53;14.87;;;;;;;4.52;86.49;100052.62;1691202;83;21064;-77
2022/12/22 07:11:37;;;;;;;21.70;14.03;;;;;;;4.53;86.48;100053.05;1658558;83;640940;-77
2022/12/22 07:14:22;;;;;;;17.92;13.35;;;;;;;4.53;86.48;100046.66;1630653;87;20964;-77
2022/12/22 07:17:07;;;;;;;20.15;13.83;;;;;;;4.55;86.51;100048.36;1659130;84;20917;-78
2022/12/22 07:19:52;;;;;;;16.32;11.68;;;;;;;4.57;86.55;100041.95;1657903;85;20934;-78
2022/12/22 07:22:37;;;;;;;18.20;13.50;;;;;;;4.60;86.59;100040.67;1657594;84;21031;-78
2022/12/22 07:25:22;;;;;;;17.42;12.43;;;;;;;4.61;86.57;100039.82;1658583;85;20923;-78
2022/12/22 07:28:08;;;;;;;18.05;12.85;;;;;;;4.63;86.59;100038.96;1659821;84;21331;-78
2022/12/22 07:30:53;;;;;;;16.75;12.53;;;;;;;4.65;86.60;100028.72;1655154;85;21492;-78
2022/12/22 07:33:38;;;;;;;15.83;12.13;;;;;;;4.69;86.60;100030.81;1664101;84;21164;-77
2022/12/22 07:36:23;;;;;;;16.40;12.50;;;;;;;4.70;86.62;100035.94;1659422;84;21573;-77
2022/12/22 07:39:09;;;;;;;14.43;11.43;;;;;;;4.72;86.62;100029.10;1658079;84;21091;-77
2022/12/22 07:44:57;;;;;;;17.55;12.40;;;;;;;4.77;86.63;100016.29;1665240;85;21144;-77
2022/12/22 07:47:43;;;;;;;18.48;11.35;;;;;;;4.81;86.66;100017.98;1658719;84;21063;-77
2022/12/22 07:50:28;;;;;;;17.73;11.40;;;;;;;4.83;86.67;100012.44;1658506;84;21001;-78
2022/12/22 07:53:13;;;;;;;15.38;10.60;;;;;;;4.86;86.68;100013.28;1669859;85;21106;-78
2022/12/22 07:56:02;;;;;;;17.62;11.93;;;;;;;4.89;86.70;100009.43;1660386;84;21556;-78
2022/12/22 07:58:47;;;;;;;15.05;12.30;;;;;;;4.94;86.71;100003.02;1656209;85;21042;-78
2022/12/22 08:01:34;;;;;;;16.95;12.53;;;;;;;4.96;86.68;100002.58;1670185;84;21319;-78
2022/12/22 08:04:19;;;;;;;15.88;12.65;;;;;;;4.98;86.65;100005.99;1669889;85;21077;-78
2022/12/22 08:07:04;;;;;;;20.17;12.18;;;;;;;4.99;86.63;99993.17;1666706;84;21107;-77
2022/12/22 08:09:49;;;;;;;17.98;12.03;;;;;;;5.03;86.63;99991.89;1660558;85;21110;-77
2022/12/22 08:12:34;;;;;;;17.35;12.82;;;;;;;5.05;86.68;99985.90;1662949;85;21337;-77
2022/12/22 08:15:19;;;;;;;20.70;13.53;;;;;;;5.07;86.65;99991.88;1658727;84;21090;-78
2022/12/22 08:18:04;;;;;;;21.97;14.93;;;;;;;5.11;86.68;99978.62;1656980;85;21037;-78
2022/12/22 08:20:52;;;;;;;29.87;19.30;;;;;;;5.16;86.68;99976.89;1669174;84;21083;-78
2022/12/22 08:23:37;;;;;;;21.12;16.07;;;;;;;5.20;86.68;99976.02;1657906;85;21016;-77
2022/12/22 08:26:28;;;;;;;20.80;14.38;;;;;;;5.21;86.63;99970.85;1669063;84;21068;-77
2022/12/22 08:29:30;;;;;;;18.82;13.32;;;;;;;5.20;86.56;99966.59;1659936;84;21117;-78
2022/12/22 08:32:15;;;;;;;19.37;14.03;;;;;;;5.16;86.50;99960.23;1660324;85;21100;-77
2022/12/22 08:35:01;;;;;;;21.65;14.47;;;;;;;5.10;86.51;99954.70;1662094;84;21477;-77
2022/12/22 08:37:47;;;;;;;24.13;15.23;;;;;;;5.12;86.64;99959.82;1649049;85;21372;-77
2022/12/22 08:40:33;;;;;;;20.80;14.15;;;;;;;5.14;86.70;99956.39;1666506;83;21536;-77
2022/12/22 08:43:20;;;;;;;22.75;13.90;;;;;;;5.21;86.80;99943.09;1657860;84;21672;-77
2022/12/22 08:46:05;;;;;;;20.90;14.25;;;;;;;5.24;86.76;99942.64;1659677;84;21405;-77
2022/12/22 08:48:50;;;;;;;18.17;12.73;;;;;;;5.26;86.77;99939.64;1662703;85;21404;-77
2022/12/22 08:51:35;;;;;;;14.70;11.88;;;;;;;5.27;86.72;99921.27;1665422;84;21353;-77
2022/12/22 08:54:20;;;;;;;21.37;13.83;;;;;;;5.27;86.71;99918.71;1657636;84;21116;-77
2022/12/22 08:57:05;;;;;;;18.25;13.08;;;;;;;5.26;86.70;99909.31;1640981;85;21538;-77
2022/12/22 08:59:50;;;;;;;18.77;13.68;;;;;;;5.26;86.69;99914.45;1658536;84;20908;-77
2022/12/22 09:02:37;;;;;;;17.73;13.20;;;;;;;5.26;86.73;99911.45;1658530;85;21014;-77
2022/12/22 09:05:21;;;;;;;;;;;;;;;5.28;86.70;99908.87;1667118;84;20971;-77
2022/12/22 09:08:06;;;;;;;14.50;11.65;;;;;;;5.29;86.69;99902.89;1663159;85;20225;-79
2022/12/22 09:10:51;;;;;;;21.52;14.40;;;;;;;5.27;86.65;99904.18;1660083;84;21461;-78
2022/12/22 09:13:36;;;;;;;26.60;15.30;;;;;;;5.28;86.70;99898.62;1651894;85;21567;-78
2022/12/22 09:16:23;;;;;;;31.90;17.05;;;;;;;5.28;86.69;99899.48;1660293;85;21100;-78
2022/12/22 09:19:08;;;;;;;28.27;16.35;;;;;;;5.30;86.73;99896.48;1668765;84;21318;-78
2022/12/22 09:21:55;;;;;;;24.47;14.58;;;;;;;5.33;86.78;99895.61;1660684;85;21129;-78
2022/12/22 09:24:39;;;;;;;27.37;14.00;;;;;;;5.35;86.75;99891.32;1662046;84;21099;-78
2022/12/22 09:27:25;;;;;;;19.77;13.00;;;;;;;5.36;86.75;99895.59;1658366;85;20986;-78
2022/12/22 09:30:11;;;;;;;15.68;11.50;;;;;;;5.39;86.78;99896.00;1662857;85;21069;-78
2022/12/22 09:32:55;;;;;;;16.20;10.78;;;;;;;5.40;86.77;99883.60;1661257;84;21590;-77
2022/12/22 09:35:41;;;;;;;14.43;11.05;;;;;;;5.42;86.77;99887.01;1665408;85;21521;-77
2022/12/22 09:38:27;;;;;;;14.80;10.32;;;;;;;5.43;86.77;99881.02;1533640;83;5001337;-77
2022/12/22 09:41:31;;;;;;;13.35;10.28;;;;;;;5.44;86.78;99881.44;1661576;85;21065;-77
2022/12/22 09:44:24;;;;;;;14.45;9.80;;;;;;;5.45;86.76;99883.14;1616817;86;21073;-77
2022/12/22 09:47:22;;;;;;;13.70;10.58;;;;;;;5.47;86.79;99875.86;1583890;88;21113;-77
2022/12/22 09:50:14;;;;;;;14.87;10.23;;;;;;;5.50;86.81;99881.39;1612677;86;21167;-77
2022/12/22 09:53:02;;;;;;;16.87;10.68;;;;;;;5.51;86.83;99868.99;1612984;86;21045;-77
2022/12/22 09:55:49;;;;;;;14.15;10.63;;;;;;;5.51;86.88;99867.28;1614072;86;20977;-77
2022/12/22 09:58:35;;;;;;;13.95;11.15;;;;;;;5.54;86.90;99867.69;1613679;86;21501;-77
2022/12/22 10:02:00;;;;;;;12.75;10.75;;;;;;;5.53;86.93;99859.14;1612368;86;21054;-78
2022/12/22 10:05:27;;;;;;;16.40;11.70;;;;;;;5.55;86.97;99856.14;1615945;86;21391;-77
2022/12/22 10:08:12;;;;;;;15.83;11.95;;;;;;;5.57;87.01;99854.84;1619378;86;21067;-77
2022/12/22 10:10:57;;;;;;;14.05;11.38;;;;;;;5.58;87.06;99848.42;1622243;86;21057;-77
2022/12/22 10:13:43;;;;;;;15.18;11.03;;;;;;;5.59;87.08;99830.04;1621547;86;21378;-77
2022/12/22 10:16:28;;;;;;;15.03;11.18;;;;;;;5.59;87.10;99828.33;1621721;86;21407;-77
2022/12/22 10:19:14;;;;;;;11.83;10.58;;;;;;;5.61;87.14;99830.88;1612938;86;21395;-77
2022/12/22 10:22:04;;;;;;;13.83;11.55;;;;;;;5.65;87.21;99823.58;1608139;86;21438;-77
2022/12/22 10:24:49;;;;;;;14.03;10.98;;;;;;;5.67;87.21;99819.28;1621194;86;20974;-77
2022/12/22 10:27:36;;;;;;;18.52;12.47;;;;;;;5.71;87.23;99827.38;1616965;86;20973;-77
2022/12/22 10:30:26;;;;;;;16.15;12.58;;;;;;;5.73;87.23;99811.50;1619031;86;20990;-77
2022/12/22 10:33:15;;;;;;;15.72;12.20;;;;;;;5.77;87.27;99804.63;1620033;86;21387;-78
2022/12/22 10:36:00;;;;;;;19.10;12.40;;;;;;;5.80;87.26;99802.04;1612358;86;20945;-78
2022/12/22 10:39:01;;;;;;;16.10;12.50;;;;;;;5.84;87.24;99801.14;1611570;86;21045;-78
2022/12/22 10:41:50;;;;;;;15.32;12.23;;;;;;;5.86;87.29;99802.83;1610493;86;20977;-78
2022/12/22 10:44:37;;;;;;;18.10;12.35;;;;;;;5.89;87.27;99798.13;1595907;86;20969;-78
2022/12/22 10:47:24;;;;;;;15.70;12.15;;;;;;;5.91;87.26;99795.97;1618963;86;21621;-78
2022/12/22 10:50:10;;;;;;;16.48;12.70;;;;;;;5.93;87.27;99793.39;1615055;86;20959;-78
2022/12/22 10:52:57;;;;;;;14.65;12.20;;;;;;;5.95;87.29;99787.81;1607695;86;20941;-78
2022/12/22 10:55:43;;;;;;;20.12;13.35;;;;;;;5.96;87.28;99780.53;1618623;86;20941;-78
2022/12/22 10:58:28;;;;;;;17.07;13.00;;;;;;;5.99;87.31;99780.50;1624894;85;21526;-78
2022/12/22 11:01:12;;;;;;;16.85;13.13;;;;;;;6.01;87.34;99774.06;1608748;86;21317;-78
2022/12/22 11:04:17;;;;;;;17.45;12.43;;;;;;;6.03;87.35;99774.47;1612727;86;21395;-78
2022/12/22 11:07:04;;;;;;;15.90;12.23;;;;;;;6.05;87.35;99769.31;1611541;86;21523;-78
2022/12/22 11:09:48;;;;;;;17.23;12.80;;;;;;;6.07;87.37;99771.00;1598502;86;20962;-78
2022/12/22 11:12:48;;;;;;;21.80;13.53;;;;;;;6.10;87.39;99767.55;1617046;86;21006;-78
2022/12/22 11:16:07;;;;;;;17.05;13.08;;;;;;;6.11;87.41;99758.98;1615948;86;21461;-78
2022/12/22 11:19:20;;;;;;;17.87;13.45;;;;;;;6.12;87.37;99752.98;1616549;86;21783;-78
2022/12/22 11:22:15;;;;;;;16.25;13.00;;;;;;;6.13;87.43;99750.83;1619077;86;21391;-78
2022/12/22 11:25:24;;;;;;;21.17;13.53;;;;;;;6.14;87.43;99749.96;1611428;86;20962;-78
2022/12/22 11:28:47;;;;;;;20.52;13.88;;;;;;;6.14;87.43;99739.70;1615214;86;20933;-78
2022/12/22 11:31:52;;;;;;;17.77;14.18;;;;;;;6.15;87.43;99738.39;1613859;86;21168;-77
2022/12/22 11:35:06;;;;;;;19.55;13.80;;;;;;;6.15;87.41;99727.28;1612749;86;20977;-78
2022/12/22 11:38:18;;;;;;;19.12;13.88;;;;;;;6.15;87.45;99720.42;1618371;86;21008;-78
2022/12/22 11:41:41;;;;;;;16.32;12.80;;;;;;;6.15;87.47;99714.45;1616159;86;20941;-78
2022/12/22 11:44:40;;;;;;;15.10;12.82;;;;;;;6.17;87.48;99716.56;1620007;86;21006;-78
2022/12/22 11:48:01;;;;;;;19.77;13.88;;;;;;;6.15;87.49;99705.03;1623965;85;21328;-78
2022/12/22 11:50:53;;;;;;;21.77;13.78;;;;;;;6.17;87.55;99705.02;1612972;86;21414;-78
2022/12/22 11:54:00;;;;;;;19.20;13.70;;;;;;;6.18;87.56;99695.16;1611001;86;21862;-78
2022/12/22 11:56:58;;;;;;;16.05;12.18;;;;;;;6.17;87.56;99689.61;1613976;86;20985;-78
2022/12/22 12:00:09;;;;;;;21.42;13.68;;;;;;;6.19;87.60;99687.87;1611786;86;20945;-78
2022/12/22 12:03:14;;;;;;;21.07;13.18;;;;;;;6.19;87.65;99678.89;1607257;87;20950;-78
2022/12/22 12:06:13;;;;;;;17.67;13.60;;;;;;;6.21;87.63;99684.84;1611554;86;20977;-78
2022/12/22 12:09:31;;;;;;;15.78;12.58;;;;;;;6.21;87.65;99684.42;1608604;87;20970;-78
2022/12/22 12:12:39;;;;;;;18.17;13.93;;;;;;;6.21;87.63;99679.28;1608169;87;21497;-78
2022/12/22 12:15:40;;;;;;;18.65;13.98;;;;;;;6.19;87.66;99680.17;1608018;87;21016;-78
2022/12/22 12:18:51;;;;;;;18.82;13.45;;;;;;;6.18;87.70;99678.04;1609792;86;20930;-78
2022/12/22 12:21:58;;;;;;;20.82;14.55;;;;;;;6.20;87.73;99678.87;1610724;87;20930;-78
2022/12/22 12:25:02;;;;;;;19.95;13.80;;;;;;;6.21;87.73;99664.31;1603309;88;20990;-78
2022/12/22 12:28:13;;;;;;;20.25;13.00;;;;;;;6.20;87.77;99669.88;1608264;86;20937;-78
2022/12/22 12:31:00;;;;;;;19.70;14.65;;;;;;;6.21;87.79;99666.88;1638127;86;21522;-78
2022/12/22 12:33:50;;;;;;;18.90;14.15;;;;;;;6.21;87.83;99665.16;1617868;86;21411;-77
2022/12/22 12:36:52;;;;;;;22.85;15.20;;;;;;;6.22;87.82;99657.03;1611183;87;20995;-77
2022/12/22 12:40:24;;;;;;;21.25;14.90;;;;;;;6.22;87.85;99660.88;1614663;87;20965;-77
2022/12/22 12:43:12;;;;;;;19.07;14.93;;;;;;;6.22;87.88;99652.75;1614896;86;21474;-77
2022/12/22 12:45:56;;;;;;;20.17;15.30;;;;;;;6.22;87.88;99653.18;1612318;87;20934;-77
2022/12/22 12:48:42;;;;;;;21.25;15.25;;;;;;;6.23;87.93;99649.74;1610132;86;21495;-77
2022/12/22 12:51:46;;;;;;;22.27;15.55;;;;;;;6.25;87.96;99650.53;1612698;87;20977;-77
2022/12/22 12:54:46;;;;;;;21.40;15.48;;;;;;;6.25;87.99;99644.97;1609344;87;21288;-77
2022/12/22 12:57:46;;;;;;;21.30;15.65;;;;;;;6.26;88.03;99645.38;1628539;87;20906;-77
2022/12/22 13:00:36;;;;;;;23.65;16.32;;;;;;;6.26;88.02;99646.66;1616632;86;21418;-77
2022/12/22 13:03:33;;;;;;;21.48;15.13;;;;;;;6.29;88.05;99638.92;1627192;85;20993;-77
2022/12/22 13:06:48;;;;;;;23.05;16.42;;;;;;;6.30;88.04;99640.62;1576812;89;20980;-77
2022/12/22 13:09:33;;;;;;;19.75;15.53;;;;;;;6.31;88.03;99629.48;1582210;89;23635;-78
2022/12/22 13:12:40;;;;;;;21.65;15.15;;;;;;;6.31;88.05;99630.77;1578128;90;20958;-78
2022/12/22 13:15:38;;;;;;;24.20;16.32;;;;;;;6.32;88.06;99627.77;1566712;90;21581;-78
2022/12/22 13:18:34;;;;;;;21.15;14.43;;;;;;;6.31;88.11;99625.63;1576588;90;21038;-78
2022/12/22 13:21:25;;;;;;;21.12;15.58;;;;;;;6.34;88.13;99625.17;1581102;89;21527;-78
2022/12/22 13:24:18;;;;;;;20.57;14.70;;;;;;;6.35;88.15;99626.87;1573388;89;21050;-78
2022/12/22 13:27:05;;;;;;;20.02;15.18;;;;;;;6.35;88.15;99623.86;1580125;88;21008;-78
2022/12/22 13:29:52;;;;;;;23.00;15.08;;;;;;;6.37;88.16;99622.13;1579150;88;21702;-78
2022/12/22 13:32:39;;;;;;;18.98;15.05;;;;;;;6.39;88.16;99627.23;1576944;88;21484;-78
2022/12/22 13:35:32;;;;;;;20.05;14.43;;;;;;;6.39;88.19;99619.53;1579681;88;21074;-78
2022/12/22 13:38:32;;;;;;;19.98;14.45;;;;;;;6.40;88.18;99623.36;1536652;86;5001091;-78
2022/12/22 13:41:19;;;;;;;19.85;14.05;;;;;;;6.41;88.19;99622.49;1615933;86;20938;-78
2022/12/22 13:44:09;;;;;;;22.70;14.38;;;;;;;6.41;88.19;99621.20;1664167;84;21514;-78
2022/12/22 13:46:57;;;;;;;22.73;14.65;;;;;;;6.41;88.22;99614.79;1670713;83;21589;-78
2022/12/22 13:49:42;;;;;;;20.48;14.40;;;;;;;6.42;88.23;99619.48;1670322;83;21005;-78
2022/12/22 13:52:27;;;;;;;21.70;14.35;;;;;;;6.42;88.25;99615.64;1671923;83;21417;-78
2022/12/22 13:55:17;;;;;;;22.55;14.20;;;;;;;6.41;88.22;99611.38;1668620;84;21057;-78
2022/12/22 13:58:09;;;;;;;19.75;14.87;;;;;;;6.42;88.27;99613.07;1674316;83;20915;-78
2022/12/22 14:01:12;;;;;;;22.77;14.55;;;;;;;6.41;88.29;99612.22;1669525;84;21480;-78
2022/12/22 14:04:06;;;;;;;24.67;14.43;;;;;;;6.42;88.29;99611.78;1638329;85;20972;-78
2022/12/22 14:06:48;;;;;;;22.87;15.53;;;;;;;6.42;88.29;99610.50;1640762;85;20916;-78
2022/12/22 14:09:33;;;;;;;24.37;16.07;;;;;;;6.43;88.34;99607.91;1665530;85;20934;-78
2022/12/22 14:12:23;;;;;;;20.95;14.65;;;;;;;6.42;88.34;99607.50;1662945;84;20897;-78
2022/12/22 14:15:13;;;;;;;24.00;14.75;;;;;;;6.41;88.35;99604.52;1659544;85;21553;-78
2022/12/22 14:17:58;;;;;;;21.02;15.32;;;;;;;6.43;88.36;99598.08;1668481;84;20912;-78
2022/12/22 14:20:46;;;;;;;19.50;14.50;;;;;;;6.43;88.38;99600.64;1666097;84;21590;-78
2022/12/22 14:23:36;;;;;;;22.00;15.05;;;;;;;6.45;88.37;99607.89;1673054;83;20913;-78
2022/12/22 14:26:25;;;;;;;21.68;15.75;;;;;;;6.45;88.42;99601.47;1668238;84;20999;-78
2022/12/22 14:29:14;;;;;;;20.88;14.45;;;;;;;6.45;88.41;99605.31;1664911;84;21427;-78
2022/12/22 14:32:02;;;;;;;22.35;15.08;;;;;;;6.44;88.43;99603.19;1663249;85;21035;-78
2022/12/22 14:34:52;;;;;;;25.15;15.03;;;;;;;6.45;88.44;99602.75;1669791;83;20924;-78
2022/12/22 14:37:36;;;;;;;23.98;15.30;;;;;;;6.44;88.45;99594.20;1661210;85;20923;-78
2022/12/22 14:40:40;;;;;;;21.02;15.20;;;;;;;6.45;88.47;99592.05;1668330;83;20960;-78
2022/12/22 14:43:30;;;;;;;24.63;16.20;;;;;;;6.46;88.50;99597.59;1664923;85;20950;-78
2022/12/22 14:46:17;;;;;;;21.17;13.88;;;;;;;6.47;88.52;99588.17;1673306;83;20916;-78
2022/12/22 14:49:02;;;;;;;20.82;14.85;;;;;;;6.47;88.51;99593.30;1658049;84;20938;-78
2022/12/22 14:52:01;;;;;;;21.20;15.72;;;;;;;6.46;88.53;99588.60;1668564;83;21659;-78
2022/12/22 14:54:49;;;;;;;21.48;15.35;;;;;;;6.46;88.55;99589.05;1659733;85;21058;-78
2022/12/22 14:57:38;;;;;;;26.80;14.53;;;;;;;6.46;88.57;99586.03;1655811;83;21354;-78
2022/12/22 15:00:29;;;;;;;23.07;15.95;;;;;;;6.47;88.58;99582.59;1668029;83;21042;-78
2022/12/22 15:03:36;;;;;;;21.60;15.15;;;;;;;6.47;88.58;99584.31;1677900;83;20916;-78
2022/12/22 15:06:30;;;;;;;23.85;17.67;;;;;;;6.47;88.64;99584.31;1665049;84;20969;-78
2022/12/22 15:09:21;;;;;;;22.00;15.48;;;;;;;6.49;88.64;99585.14;1671561;83;20920;-78
2022/12/22 15:12:13;;;;;;;23.00;15.32;;;;;;;6.49;88.67;99582.57;1661659;84;21509;-78
2022/12/22 15:15:00;;;;;;;22.85;15.63;;;;;;;6.48;88.68;99583.01;1675302;83;21015;-78
2022/12/22 15:17:47;;;;;;;24.77;17.25;;;;;;;6.49;88.69;99585.14;1664899;83;21006;-78
2022/12/22 15:20:32;;;;;;;27.45;16.17;;;;;;;6.50;88.70;99586.84;1673128;83;20952;-78
2022/12/22 15:23:17;;;;;;;24.12;17.17;;;;;;;6.50;88.73;99588.13;1667186;84;21525;-78
2022/12/22 15:26:02;;;;;;;27.35;17.48;;;;;;;6.49;88.71;99586.42;1669813;83;21894;-78
2022/12/22 15:28:47;;;;;;;26.35;16.97;;;;;;;6.50;88.76;99593.25;1654625;85;20900;-78
2022/12/22 15:31:33;;;;;;;28.70;18.77;;;;;;;6.49;88.73;99592.41;1663297;84;21073;-77
2022/12/22 15:34:28;;;;;;;25.33;18.80;;;;;;;6.50;88.74;99590.69;1675054;83;21586;-76
2022/12/22 15:39:39;;;;;;;26.23;18.62;;;;;;;6.53;88.78;99590.64;1819735;77;28053;-76
2022/12/22 15:42:24;;;;;;;27.07;18.23;;;;;;;6.49;88.79;99583.42;1790344;79;21000;-76
2022/12/22 15:45:11;;;;;;;28.07;18.73;;;;;;;6.50;88.80;99583.83;1769291;80;21043;-76
2022/12/22 15:47:56;;;;;;;27.70;17.57;;;;;;;6.50;88.81;99586.41;1776376;78;21575;-76
2022/12/22 15:50:43;;;;;;;26.80;18.90;;;;;;;6.51;88.84;99584.25;1802402;78;21565;-76
2022/12/22 15:53:30;;;;;;;27.52;18.23;;;;;;;6.52;88.84;99586.38;1760727;80;21478;-77
2022/12/22 15:56:19;;;;;;;29.55;19.48;;;;;;;6.52;88.89;99591.08;1757510;80;21826;-76
2022/12/22 15:59:04;;;;;;;30.57;19.90;;;;;;;6.54;88.90;99587.20;1800546;78;20895;-77
2022/12/22 16:01:49;;;;;;;29.77;19.12;;;;;;;6.54;88.91;99588.05;1767716;79;20871;-76
2022/12/22 16:04:34;;;;;;;32.70;19.05;;;;;;;6.54;88.90;99579.50;1779809;79;20910;-76
2022/12/22 16:07:20;;;;;;;33.20;20.60;;;;;;;6.55;88.88;99579.47;1782088;79;20903;-77
2022/12/22 16:10:09;;;;;;;32.35;20.50;;;;;;;6.55;88.95;99580.75;1780918;79;20898;-77
2022/12/22 16:12:59;;;;;;;29.45;19.70;;;;;;;6.56;88.95;99582.45;1773521;79;20898;-76
2022/12/22 16:15:44;;;;;;;31.10;20.15;;;;;;;6.57;88.97;99566.61;1757068;79;20912;-77
2022/12/22 16:18:29;;;;;;;30.85;20.88;;;;;;;6.56;88.95;99577.75;1754238;79;20927;-76
2022/12/22 16:21:21;;;;;;;35.05;20.48;;;;;;;6.55;89.00;99573.48;1748913;79;20904;-76
2022/12/22 16:24:10;;;;;;;28.67;18.35;;;;;;;6.56;89.04;99578.59;1757029;79;20898;-76
2022/12/22 16:26:56;;;;;;;30.10;20.12;;;;;;;6.57;89.06;99581.58;1750636;80;20911;-76
2022/12/22 16:29:45;;;;;;;30.68;19.75;;;;;;;6.58;89.11;99578.14;1748658;80;20931;-76
2022/12/22 16:32:31;;;;;;;31.33;19.35;;;;;;;6.60;89.11;99576.83;1730723;81;20909;-76
2022/12/22 16:35:20;;;;;;;30.82;20.70;;;;;;;6.61;89.15;99579.38;1724971;82;20984;-76
2022/12/22 16:38:05;;;;;;;27.62;20.25;;;;;;;6.62;89.16;99581.06;1724807;80;20950;-76
2022/12/22 16:40:52;;;;;;;30.90;20.63;;;;;;;6.63;89.16;99580.20;1710094;82;21444;-76
2022/12/22 16:43:38;;;;;;;42.23;24.75;;;;;;;6.66;89.19;99587.00;1720640;82;20966;-76